Time;durP1;ratioP1;P1;durP2;ratioP2;P2;SDS_P1;SDS_P2;PMS_P1;PMS_P2;Temp;Humidity;BMP_temperature;BMP_pressure;BME280_temperature;BME280_humidity;BME280_pressure;Samples;Min_cycle;Max_cycle;Signal;HPM_P1;HPM_P2
2021/10/26 00:00:00;;;;;;;;;;;14.30;99.70;14.70;100157.00;;;;341636;28;86646;-96
2021/10/26 00:00:12;;;;;;;;;;;14.30;99.80;14.70;100152.00;;;;341867;28;91163;-96
2021/10/26 00:00:24;;;;;;;;;;;14.30;99.70;14.70;100146.00;;;;341459;28;85938;-96
2021/10/26 00:00:37;;;;;;;;;;;14.30;99.70;14.70;100142.00;;;;341879;28;88754;-96
2021/10/26 00:00:49;;;;;;;;;;;14.30;99.60;14.60;100151.00;;;;343047;28;87120;-96
2021/10/26 00:01:01;;;;;;;;;;;14.30;99.60;14.60;100137.00;;;;343036;28;90129;-96
2021/10/26 00:01:12;;;;;;;;;;;14.30;99.70;14.50;100146.00;;;;342903;28;87021;-96
2021/10/26 00:01:24;;;;;;;;;;;14.30;99.70;14.60;100149.00;;;;341750;28;90106;-96
2021/10/26 00:01:36;;;;;;;;;;;14.30;99.80;14.60;100145.00;;;;341796;28;86986;-96
2021/10/26 00:01:48;;;;;;;;;;;14.30;99.80;14.60;100143.00;;;;340589;28;90463;-96
2021/10/26 00:02:00;;;;;;;;;;;14.30;99.80;14.60;100149.00;;;;341682;28;86706;-96
2021/10/26 00:02:13;;;;;;;;;;;14.30;99.70;14.60;100147.00;;;;341922;28;89979;-96
2021/10/26 00:02:25;;;;;;;;;;;14.30;99.90;14.60;100147.00;;;;341752;28;87465;-95
2021/10/26 00:02:38;;;;;;;;;;;14.30;99.80;14.60;100146.00;;;;343420;28;89414;-96
2021/10/26 00:02:50;;;;;;;;;;;14.30;99.80;14.60;100145.00;;;;341575;28;87013;-96
2021/10/26 00:03:02;;;;;;;;;;;14.30;99.90;14.60;100144.00;;;;339212;28;87320;-95
2021/10/26 00:03:14;;;;;;;;;;;14.30;99.90;14.60;100142.00;;;;341618;28;87152;-95
2021/10/26 00:03:26;;;;;;;;;;;14.30;99.90;14.60;100147.00;;;;340701;28;89835;-95
2021/10/26 00:03:38;;;;;;;;;;;14.30;99.90;14.60;100147.00;;;;342877;28;86160;-96
2021/10/26 00:03:51;;;;;;;;;;;14.30;99.90;14.50;100143.00;;;;344463;28;88866;-96
2021/10/26 00:04:03;;;;;;;;;;;14.30;99.90;14.40;100149.00;;;;340007;28;86949;-96
2021/10/26 00:04:15;;;;;;;;;;;14.30;99.90;14.50;100149.00;;;;341964;28;89547;-96
2021/10/26 00:04:27;;;;;;;;;;;14.30;99.90;14.50;100147.00;;;;341651;28;86599;-95
2021/10/26 00:04:39;;;;;;;;;;;14.30;99.90;14.50;100146.00;;;;340580;28;88609;-96
2021/10/26 00:04:50;;;;;;;;;;;14.30;99.90;14.50;100144.00;;;;341844;28;87159;-95
2021/10/26 00:05:03;;;;;;;;;;;14.30;99.90;14.50;100147.00;;;;339284;28;89648;-95
2021/10/26 00:05:15;;;;;;;;;;;14.30;99.90;14.50;100149.00;;;;339035;28;86508;-96
2021/10/26 00:05:27;;;;;;;;;;;14.30;99.90;14.50;100144.00;;;;342019;28;89539;-96
2021/10/26 00:05:39;;;;;;;;;;;14.30;99.90;14.50;100140.00;;;;339037;28;88108;-96
2021/10/26 00:05:51;;;;;;;;;;;14.30;99.90;14.50;100151.00;;;;340390;28;88781;-95
2021/10/26 00:06:04;;;;;;;;;;;14.30;99.80;14.50;100143.00;;;;340275;28;86797;-96
2021/10/26 00:06:16;;;;;;;;;;;14.20;99.90;14.50;100146.00;;;;341810;28;90266;-95
2021/10/26 00:06:27;;;;;;;;;;;14.30;99.90;14.50;100144.00;;;;340326;28;88200;-95
2021/10/26 00:06:39;;;;;;;;;;;14.30;99.90;14.50;100146.00;;;;339266;28;89375;-96
2021/10/26 00:06:51;;;;;;;;;;;14.30;99.90;14.50;100147.00;;;;343084;28;86736;-96
2021/10/26 00:07:03;;;;;;;;;;;14.20;99.90;14.50;100147.00;;;;341876;28;89570;-96
2021/10/26 00:07:15;;;;;;;;;;;14.20;99.80;14.50;100148.00;;;;342764;28;87107;-96
2021/10/26 00:07:27;;;;;;;;;;;14.20;99.70;14.50;100140.00;;;;343162;28;90442;-95
2021/10/26 00:07:39;;;;;;;;;;;14.20;99.90;14.40;100151.00;;;;341583;28;87013;-96
2021/10/26 00:07:51;;;;;;;;;;;14.20;99.90;14.40;100151.00;;;;341822;28;90691;-96
2021/10/26 00:08:03;;;;;;;;;;;14.20;99.90;14.30;100145.00;;;;341637;28;88087;-95
2021/10/26 00:08:15;;;;;;;;;;;14.20;99.90;14.20;100147.00;;;;344631;28;89461;-96
2021/10/26 00:08:27;;;;;;;;;;;14.20;99.90;14.30;100154.00;;;;343009;28;87726;-96
2021/10/26 00:08:38;;;;;;;;;;;14.20;99.90;14.50;100150.00;;;;344707;28;90445;-96
2021/10/26 00:08:50;;;;;;;;;;;14.20;99.90;14.50;100144.00;;;;341736;28;86724;-96
2021/10/26 00:09:03;;;;;;;;;;;14.20;99.90;14.50;100150.00;;;;343112;28;90674;-95
2021/10/26 00:09:16;;;;;;;;;;;14.20;99.90;14.50;100140.00;;;;341482;28;87949;-95
2021/10/26 00:09:27;;;;;;;;;;;14.20;99.90;14.40;100147.00;;;;343350;28;89366;-96
2021/10/26 00:09:39;;;;;;;;;;;14.20;99.90;14.30;100149.00;;;;341805;28;86873;-96
2021/10/26 00:09:51;;;;;;;;;;;14.20;99.90;14.30;100152.00;;;;343220;28;89755;-96
2021/10/26 00:10:05;;;;;;;;;;;14.20;99.90;14.40;100144.00;;;;340773;28;86926;-96
2021/10/26 00:10:17;;;;;;;;;;;14.20;99.90;14.40;100146.00;;;;341844;28;91049;-95
2021/10/26 00:10:29;;;;;;;;;;;14.20;99.90;14.50;100149.00;;;;341431;28;86606;-95
2021/10/26 00:10:41;;;;;;;;;;;14.20;99.90;14.50;100139.00;;;;339321;28;89405;-96
2021/10/26 00:10:53;;;;;;;;;;;14.20;99.90;14.50;100147.00;;;;340384;28;86585;-96
2021/10/26 00:11:05;;;;;;;;;;;14.20;99.90;14.50;100149.00;;;;339294;28;89103;-95
2021/10/26 00:11:17;;;;;;;;;;;14.20;99.90;14.50;100145.00;;;;340309;28;87269;-96
2021/10/26 00:11:29;;;;;;;;;;;14.20;99.90;14.60;100149.00;;;;341884;28;89614;-95
2021/10/26 00:11:41;;;;;;;;;;;14.20;99.90;14.60;100148.00;;;;340326;28;87006;-96
2021/10/26 00:11:53;;;;;;;;;;;14.20;99.90;14.60;100150.00;;;;343182;28;90214;-96
2021/10/26 00:12:05;;;;;;;;;;;14.20;99.90;14.60;100153.00;;;;340423;28;86568;-95
2021/10/26 00:12:17;;;;;;;;;;;14.20;99.90;14.60;100152.00;;;;343241;28;89556;-95
2021/10/26 00:12:29;;;;;;;;;;;14.20;99.90;14.70;100141.00;;;;341625;28;86843;-95
2021/10/26 00:12:41;;;;;;;;;;;14.20;99.90;14.60;100149.00;;;;341654;28;88366;-96
2021/10/26 00:12:53;;;;;;;;;;;14.20;99.90;14.50;100150.00;;;;340452;28;86704;-95
2021/10/26 00:13:04;;;;;;;;;;;14.20;99.90;14.60;100147.00;;;;343209;28;90973;-96
2021/10/26 00:13:16;;;;;;;;;;;14.20;99.90;14.50;100147.00;;;;341672;28;86758;-95
2021/10/26 00:13:28;;;;;;;;;;;14.20;99.90;14.40;100152.00;;;;343358;28;89693;-96
2021/10/26 00:13:40;;;;;;;;;;;14.20;99.90;14.40;100150.00;;;;341685;28;86701;-96
2021/10/26 00:13:53;;;;;;;;;;;14.20;99.90;14.40;100149.00;;;;343297;28;90133;-95
2021/10/26 00:14:04;;;;;;;;;;;14.20;99.90;14.60;100155.00;;;;341700;28;86873;-95
2021/10/26 00:14:16;;;;;;;;;;;14.20;99.90;14.60;100156.00;;;;340545;28;90367;-95
2021/10/26 00:14:28;;;;;;;;;;;14.20;99.90;14.50;100150.00;;;;340299;28;87830;-95
2021/10/26 00:14:40;;;;;;;;;;;14.20;99.90;14.50;100147.00;;;;341908;28;88901;-94
2021/10/26 00:14:54;;;;;;;;;;;14.20;99.90;14.50;100151.00;;;;340360;28;86989;-96
2021/10/26 00:15:06;;;;;;;;;;;14.20;99.90;14.50;100152.00;;;;343370;28;89521;-95
2021/10/26 00:15:19;;;;;;;;;;;14.20;99.90;14.50;100147.00;;;;341646;28;86501;-95
2021/10/26 00:15:31;;;;;;;;;;;14.20;99.90;14.40;100152.00;;;;343242;28;89793;-96
2021/10/26 00:15:43;;;;;;;;;;;14.20;99.90;14.40;100160.00;;;;341620;28;87706;-96
2021/10/26 00:15:55;;;;;;;;;;;14.20;99.90;14.30;100154.00;;;;341758;28;89741;-95
2021/10/26 00:16:07;;;;;;;;;;;14.20;99.90;14.30;100162.00;;;;341639;28;88631;-95
2021/10/26 00:16:19;;;;;;;;;;;14.20;99.90;14.40;100152.00;;;;341891;28;89856;-96
2021/10/26 00:16:31;;;;;;;;;;;14.20;99.90;14.40;100158.00;;;;341686;28;86794;-95
2021/10/26 00:16:43;;;;;;;;;;;14.20;99.90;14.30;100147.00;;;;343338;28;89441;-96
2021/10/26 00:16:55;;;;;;;;;;;14.20;99.90;14.30;100154.00;;;;343090;28;86901;-95
2021/10/26 00:17:07;;;;;;;;;;;14.20;99.90;14.40;100157.00;;;;343165;28;90821;-94
2021/10/26 00:17:19;;;;;;;;;;;14.20;99.90;14.30;100160.00;;;;344421;28;86990;-95
2021/10/26 00:17:30;;;;;;;;;;;14.20;99.90;14.30;100152.00;;;;343219;28;89825;-96
2021/10/26 00:17:42;;;;;;;;;;;14.10;99.90;14.20;100155.00;;;;342950;28;86944;-95
2021/10/26 00:17:54;;;;;;;;;;;14.20;99.90;14.30;100156.00;;;;343139;28;89789;-96
2021/10/26 00:18:06;;;;;;;;;;;14.20;99.90;14.30;100156.00;;;;344409;28;86959;-95
2021/10/26 00:18:18;;;;;;;;;;;14.10;99.90;14.40;100157.00;;;;343244;28;90237;-95
2021/10/26 00:18:30;;;;;;;;;;;14.10;99.90;14.40;100154.00;;;;344098;28;86447;-95
2021/10/26 00:18:41;;;;;;;;;;;14.20;99.90;14.40;100163.00;;;;343133;28;88243;-96
2021/10/26 00:18:53;;;;;;;;;;;14.20;99.90;14.50;100153.00;;;;341841;28;86866;-95
2021/10/26 00:19:05;;;;;;;;;;;14.10;99.90;14.50;100161.00;;;;343207;28;89566;-95
2021/10/26 00:19:17;;;;;;;;;;;14.20;99.90;14.60;100157.00;;;;340230;28;87249;-96
2021/10/26 00:19:30;;;;;;;;;;;14.20;99.90;14.60;100154.00;;;;343218;28;89899;-95
2021/10/26 00:19:41;;;;;;;;;;;14.20;99.90;14.60;100158.00;;;;341673;28;86073;-93
2021/10/26 00:19:53;;;;;;;;;;;14.20;99.90;14.60;100152.00;;;;341729;28;89178;-95
2021/10/26 00:20:06;;;;;;;;;;;14.20;99.90;14.50;100161.00;;;;341643;28;87119;-96
2021/10/26 00:20:18;;;;;;;;;;;14.20;99.90;14.50;100150.00;;;;340542;28;89638;-95
2021/10/26 00:20:31;;;;;;;;;;;14.20;99.90;14.50;100154.00;;;;341544;28;86431;-95
2021/10/26 00:20:43;;;;;;;;;;;14.20;99.90;14.50;100157.00;;;;341922;28;90534;-95
2021/10/26 00:20:55;;;;;;;;;;;14.20;99.90;14.50;100150.00;;;;343033;28;86884;-95
2021/10/26 00:21:07;;;;;;;;;;;14.20;99.90;14.60;100153.00;;;;343323;28;89063;-95
2021/10/26 00:21:18;;;;;;;;;;;14.20;99.90;14.50;100150.00;;;;340308;28;87994;-92
2021/10/26 00:21:30;;;;;;;;;;;14.20;99.90;14.50;100151.00;;;;342884;28;89488;-96
2021/10/26 00:21:43;;;;;;;;;;;14.20;99.90;14.50;100156.00;;;;343009;28;87966;-95
2021/10/26 00:21:55;;;;;;;;;;;14.20;99.90;14.50;100153.00;;;;343563;28;89667;-95
2021/10/26 00:22:07;;;;;;;;;;;14.20;99.90;14.50;100157.00;;;;342894;28;88359;-95
2021/10/26 00:22:19;;;;;;;;;;;14.20;99.90;14.60;100151.00;;;;344184;28;88861;-95
2021/10/26 00:22:30;;;;;;;;;;;14.20;99.90;14.70;100148.00;;;;341595;28;86618;-95
2021/10/26 00:22:42;;;;;;;;;;;14.20;99.90;14.70;100154.00;;;;341858;28;88906;-95
2021/10/26 00:22:54;;;;;;;;;;;14.20;99.90;14.70;100156.00;;;;344421;28;86562;-95
2021/10/26 00:23:06;;;;;;;;;;;14.20;99.90;14.70;100153.00;;;;341852;28;90725;-95
2021/10/26 00:23:17;;;;;;;;;;;14.30;99.90;14.60;100152.00;;;;341591;28;86981;-95
2021/10/26 00:23:29;;;;;;;;;;;14.20;99.90;14.70;100154.00;;;;346065;28;91176;-95
2021/10/26 00:23:41;;;;;;;;;;;14.30;99.90;14.70;100155.00;;;;343025;28;86857;-94
2021/10/26 00:23:53;;;;;;;;;;;14.20;99.90;14.60;100151.00;;;;343189;28;90620;-94
2021/10/26 00:24:05;;;;;;;;;;;14.30;99.90;14.60;100157.00;;;;343040;28;86824;-95
2021/10/26 00:24:17;;;;;;;;;;;14.30;99.90;14.60;100159.00;;;;343246;28;88942;-95
2021/10/26 00:24:29;;;;;;;;;;;14.30;99.90;14.60;100157.00;;;;344328;28;88250;-94
2021/10/26 00:24:40;;;;;;;;;;;14.20;99.90;14.60;100160.00;;;;341987;28;89470;-94
2021/10/26 00:24:52;;;;;;;;;;;14.30;99.90;14.70;100157.00;;;;340180;28;86799;-95
2021/10/26 00:25:04;;;;;;;;;;;14.30;99.90;14.60;100160.00;;;;340534;28;91113;-95
2021/10/26 00:25:17;;;;;;;;;;;14.30;99.90;14.60;100159.00;;;;342998;28;87497;-95
2021/10/26 00:25:29;;;;;;;;;;;14.30;99.90;14.60;100158.00;;;;343159;28;90886;-94
2021/10/26 00:25:40;;;;;;;;;;;14.30;99.90;14.50;100155.00;;;;341626;28;87322;-95
2021/10/26 00:25:52;;;;;;;;;;;14.30;99.90;14.50;100159.00;;;;341848;28;90285;-95
2021/10/26 00:26:04;;;;;;;;;;;14.30;99.90;14.50;100164.00;;;;340158;28;87336;-95
2021/10/26 00:26:16;;;;;;;;;;;14.30;99.90;14.60;100151.00;;;;341782;28;90959;-95
2021/10/26 00:26:28;;;;;;;;;;;14.20;99.90;14.60;100147.00;;;;342848;28;87812;-94
2021/10/26 00:26:39;;;;;;;;;;;14.30;99.90;14.60;100153.00;;;;342055;28;88427;-94
2021/10/26 00:26:51;;;;;;;;;;;14.30;99.90;14.60;100154.00;;;;339026;28;86895;-94
2021/10/26 00:27:03;;;;;;;;;;;14.30;99.90;14.60;100151.00;;;;340565;28;91345;-95
2021/10/26 00:27:15;;;;;;;;;;;14.30;99.90;14.60;100157.00;;;;341701;28;85891;-94
2021/10/26 00:27:27;;;;;;;;;;;14.30;99.90;14.70;100153.00;;;;341925;28;90199;-95
2021/10/26 00:27:39;;;;;;;;;;;14.30;99.90;14.70;100154.00;;;;341763;28;87184;-95
2021/10/26 00:27:51;;;;;;;;;;;14.30;99.90;14.70;100159.00;;;;343289;28;87312;-95
2021/10/26 00:28:03;;;;;;;;;;;14.30;99.90;14.60;100150.00;;;;340330;28;87164;-95
2021/10/26 00:28:15;;;;;;;;;;;14.30;99.90;14.70;100154.00;;;;342003;28;89903;-95
2021/10/26 00:28:27;;;;;;;;;;;14.30;99.90;14.50;100157.00;;;;341532;28;86275;-95
2021/10/26 00:28:39;;;;;;;;;;;14.30;99.90;14.50;100161.00;;;;343367;28;88789;-94
2021/10/26 00:28:51;;;;;;;;;;;14.30;99.90;14.50;100153.00;;;;343225;28;86410;-95
2021/10/26 00:29:03;;;;;;;;;;;14.30;99.90;14.50;100158.00;;;;343328;28;91180;-94
2021/10/26 00:29:14;;;;;;;;;;;14.30;99.90;14.50;100155.00;;;;341589;28;87085;-95
2021/10/26 00:29:26;;;;;;;;;;;14.30;99.90;14.60;100162.00;;;;343291;28;89628;-95
2021/10/26 00:29:38;;;;;;;;;;;14.30;99.90;14.70;100149.00;;;;341829;28;87048;-95
2021/10/26 00:29:51;;;;;;;;;;;14.30;99.90;14.70;100160.00;;;;343332;28;89437;-95
2021/10/26 00:30:04;;;;;;;;;;;14.30;99.90;14.70;100161.00;;;;344561;28;87285;-95
2021/10/26 00:30:15;;;;;;;;;;;14.30;99.90;14.60;100166.00;;;;343411;28;90214;-95
2021/10/26 00:30:27;;;;;;;;;;;14.30;99.90;14.50;100160.00;;;;341852;28;88600;-94
2021/10/26 00:30:39;;;;;;;;;;;14.30;99.90;14.50;100162.00;;;;340741;28;89671;-95
2021/10/26 00:30:51;;;;;;;;;;;14.30;99.90;14.60;100160.00;;;;343259;28;87102;-94
2021/10/26 00:31:03;;;;;;;;;;;14.30;99.90;14.60;100160.00;;;;342197;28;89605;-94
2021/10/26 00:31:15;;;;;;;;;;;14.30;99.90;14.60;100157.00;;;;341980;28;87001;-95
2021/10/26 00:31:27;;;;;;;;;;;14.30;99.90;14.60;100162.00;;;;343449;28;90482;-94
2021/10/26 00:31:39;;;;;;;;;;;14.30;99.90;14.70;100155.00;;;;341843;28;87923;-96
2021/10/26 00:31:51;;;;;;;;;;;14.30;99.90;14.60;100160.00;;;;343421;28;90043;-94
2021/10/26 00:32:03;;;;;;;;;;;14.30;99.90;14.60;100158.00;;;;340608;28;87220;-95
2021/10/26 00:32:15;;;;;;;;;;;14.30;99.90;14.60;100164.00;;;;342141;28;89476;-95
2021/10/26 00:32:27;;;;;;;;;;;14.30;99.90;14.60;100160.00;;;;341507;28;85906;-95
2021/10/26 00:32:38;;;;;;;;;;;14.30;99.90;14.60;100158.00;;;;342196;28;89044;-95
2021/10/26 00:32:50;;;;;;;;;;;14.30;99.90;14.50;100164.00;;;;341940;28;86995;-95
2021/10/26 00:33:02;;;;;;;;;;;14.30;99.90;14.50;100157.00;;;;342179;28;89104;-95
2021/10/26 00:33:14;;;;;;;;;;;14.30;99.90;14.50;100159.00;;;;341925;28;88510;-95
2021/10/26 00:33:27;;;;;;;;;;;14.30;99.90;14.50;100164.00;;;;343461;28;89845;-95
2021/10/26 00:33:39;;;;;;;;;;;14.20;99.90;14.50;100165.00;;;;342065;28;87239;-95
2021/10/26 00:33:52;;;;;;;;;;;14.30;99.90;14.50;100167.00;;;;340629;28;89897;-95
2021/10/26 00:34:04;;;;;;;;;;;14.30;99.90;14.50;100165.00;;;;341830;28;86736;-95
2021/10/26 00:34:16;;;;;;;;;;;14.20;99.90;14.40;100159.00;;;;342105;28;89848;-94
2021/10/26 00:34:28;;;;;;;;;;;14.20;99.90;14.50;100166.00;;;;340503;28;87192;-95
2021/10/26 00:34:40;;;;;;;;;;;14.20;99.90;14.50;100153.00;;;;342298;28;88364;-95
2021/10/26 00:34:52;;;;;;;;;;;14.20;99.90;14.50;100157.00;;;;341945;28;88037;-95
2021/10/26 00:35:04;;;;;;;;;;;14.20;99.90;14.50;100166.00;;;;340831;28;90315;-94
2021/10/26 00:35:16;;;;;;;;;;;14.20;99.90;14.50;100160.00;;;;343279;28;87345;-94
2021/10/26 00:35:28;;;;;;;;;;;14.20;99.90;14.50;100163.00;;;;343554;28;89594;-95
2021/10/26 00:35:40;;;;;;;;;;;14.20;99.90;14.50;100160.00;;;;340578;28;86904;-95
2021/10/26 00:35:52;;;;;;;;;;;14.20;99.90;14.50;100158.00;;;;343532;28;89420;-96
2021/10/26 00:36:04;;;;;;;;;;;14.20;99.90;14.50;100162.00;;;;343307;28;86333;-94
2021/10/26 00:36:16;;;;;;;;;;;14.20;99.90;14.40;100161.00;;;;343491;28;89902;-95
2021/10/26 00:36:28;;;;;;;;;;;14.20;99.90;14.40;100162.00;;;;340445;28;86682;-94
2021/10/26 00:36:40;;;;;;;;;;;14.20;99.90;14.50;100168.00;;;;340602;28;90685;-95
2021/10/26 00:36:51;;;;;;;;;;;14.20;99.90;14.50;100160.00;;;;340309;28;86620;-95
2021/10/26 00:37:03;;;;;;;;;;;14.20;99.90;14.60;100164.00;;;;340646;28;90068;-95
2021/10/26 00:37:15;;;;;;;;;;;14.20;99.90;14.60;100170.00;;;;341879;28;87120;-95
2021/10/26 00:37:27;;;;;;;;;;;14.20;99.90;14.60;100165.00;;;;344866;28;90856;-95
2021/10/26 00:37:39;;;;;;;;;;;14.20;99.90;14.50;100167.00;;;;343369;28;86699;-95
2021/10/26 00:37:51;;;;;;;;;;;14.20;99.90;14.50;100157.00;;;;340887;28;90028;-96
2021/10/26 00:38:03;;;;;;;;;;;14.20;99.90;14.50;100163.00;;;;343290;28;86484;-96
2021/10/26 00:38:15;;;;;;;;;;;14.20;99.90;14.60;100167.00;;;;342368;28;89810;-95
2021/10/26 00:38:26;;;;;;;;;;;14.20;99.90;14.50;100167.00;;;;343275;28;85809;-95
2021/10/26 00:38:39;;;;;;;;;;;14.20;99.90;14.40;100169.00;;;;343731;28;88870;-94
2021/10/26 00:38:51;;;;;;;;;;;14.20;99.90;14.40;100170.00;;;;342086;28;87408;-94
2021/10/26 00:39:04;;;;;;;;;;;14.20;99.90;14.40;100169.00;;;;341000;28;90263;-95
2021/10/26 00:39:16;;;;;;;;;;;14.20;99.90;14.40;100164.00;;;;343416;28;86494;-95
2021/10/26 00:39:27;;;;;;;;;;;14.20;99.90;14.40;100167.00;;;;340910;28;90955;-94
2021/10/26 00:39:40;;;;;;;;;;;14.20;99.90;14.50;100164.00;;;;340585;28;89191;-95
2021/10/26 00:39:52;;;;;;;;;;;14.20;99.90;14.50;100164.00;;;;339479;28;90015;-95
2021/10/26 00:40:07;;;;;;;;;;;14.20;99.90;14.40;100164.00;;;;341521;28;86477;-95
2021/10/26 00:40:20;;;;;;;;;;;14.20;99.90;14.40;100170.00;;;;339679;28;89834;-95
2021/10/26 00:40:32;;;;;;;;;;;14.20;99.90;14.40;100166.00;;;;339249;28;87748;-94
2021/10/26 00:40:43;;;;;;;;;;;14.20;99.90;14.40;100162.00;;;;342364;28;89649;-94
2021/10/26 00:40:57;;;;;;;;;;;14.10;99.90;14.30;100169.00;;;;340680;28;86272;-95
2021/10/26 00:41:09;;;;;;;;;;;14.20;99.90;14.30;100168.00;;;;342218;28;90090;-95
2021/10/26 00:41:21;;;;;;;;;;;14.20;99.90;14.40;100154.00;;;;340656;28;87129;-95
2021/10/26 00:41:33;;;;;;;;;;;14.10;99.90;14.40;100165.00;;;;342087;28;90115;-94
2021/10/26 00:41:45;;;;;;;;;;;14.20;99.90;14.50;100166.00;;;;341670;28;86850;-95
2021/10/26 00:41:58;;;;;;;;;;;14.20;99.90;14.50;100166.00;;;;342153;28;91072;-95
2021/10/26 00:42:11;;;;;;;;;;;14.20;99.90;14.60;100155.00;;;;344627;28;87012;-95
2021/10/26 00:42:23;;;;;;;;;;;14.20;99.90;14.70;100162.00;;;;343563;28;89819;-94
2021/10/26 00:42:34;;;;;;;;;;;14.20;99.90;14.70;100164.00;;;;341981;28;86956;-94
2021/10/26 00:42:46;;;;;;;;;;;14.20;99.90;14.70;100164.00;;;;343580;28;89085;-95
2021/10/26 00:42:58;;;;;;;;;;;14.20;99.90;14.60;100154.00;;;;341213;28;86938;-95
2021/10/26 00:43:10;;;;;;;;;;;14.20;99.90;14.50;100168.00;;;;343497;28;90145;-94
2021/10/26 00:43:21;;;;;;;;;;;14.20;99.90;14.50;100160.00;;;;339224;28;87209;-94
2021/10/26 00:43:33;;;;;;;;;;;14.20;99.90;14.50;100168.00;;;;340821;28;89792;-94
2021/10/26 00:43:46;;;;;;;;;;;14.20;99.90;14.50;100164.00;;;;341835;28;88263;-95
2021/10/26 00:43:58;;;;;;;;;;;14.20;99.90;14.50;100161.00;;;;342065;28;91107;-94
2021/10/26 00:44:09;;;;;;;;;;;14.20;99.90;14.40;100163.00;;;;343363;28;87274;-95
2021/10/26 00:44:21;;;;;;;;;;;14.20;99.90;14.50;100162.00;;;;341970;28;90702;-96
2021/10/26 00:44:33;;;;;;;;;;;14.20;99.90;14.50;100165.00;;;;341793;28;88442;-95
2021/10/26 00:44:45;;;;;;;;;;;14.20;99.90;14.50;100158.00;;;;344918;28;88585;-95
2021/10/26 00:44:57;;;;;;;;;;;14.20;99.90;14.50;100162.00;;;;344636;28;86704;-95
2021/10/26 00:45:09;;;;;;;;;;;14.20;99.90;14.50;100160.00;;;;344725;28;91213;-95
2021/10/26 00:45:20;;;;;;;;;;;14.20;99.90;14.50;100161.00;;;;343248;28;86894;-95
2021/10/26 00:45:32;;;;;;;;;;;14.20;99.90;14.50;100160.00;;;;342045;28;90959;-96
2021/10/26 00:45:44;;;;;;;;;;;14.20;99.90;14.50;100151.00;;;;344540;28;86865;-95
2021/10/26 00:45:57;;;;;;;;;;;14.20;99.90;14.50;100151.00;;;;344574;28;89680;-95
2021/10/26 00:46:09;;;;;;;;;;;14.20;99.90;14.40;100158.00;;;;341891;28;87324;-94
2021/10/26 00:46:28;;;;;;;;;;;14.20;99.90;14.50;100163.00;;;;343514;28;89224;-95
2021/10/26 00:46:40;;;;;;;;;;;14.20;99.90;14.40;100164.00;;;;346009;28;87288;-95
2021/10/26 00:46:52;;;;;;;;;;;14.10;99.90;14.40;100159.00;;;;343516;28;89333;-95
2021/10/26 00:47:04;;;;;;;;;;;14.20;99.90;14.40;100159.00;;;;341952;28;87030;-96
2021/10/26 00:47:16;;;;;;;;;;;14.10;99.90;14.40;100167.00;;;;343438;28;90242;-95
2021/10/26 00:47:28;;;;;;;;;;;14.20;99.90;14.40;100157.00;;;;344626;28;88182;-95
2021/10/26 00:47:40;;;;;;;;;;;14.20;99.90;14.40;100160.00;;;;344770;28;89953;-95
2021/10/26 00:47:51;;;;;;;;;;;14.20;99.90;14.40;100163.00;;;;345792;28;87299;-95
2021/10/26 00:48:04;;;;;;;;;;;14.20;99.90;14.40;100159.00;;;;343457;28;91112;-94
2021/10/26 00:48:16;;;;;;;;;;;14.10;99.90;14.40;100158.00;;;;341970;28;87615;-96
2021/10/26 00:48:27;;;;;;;;;;;14.20;99.90;14.40;100166.00;;;;342115;28;88561;-95
2021/10/26 00:48:39;;;;;;;;;;;14.20;99.90;14.40;100159.00;;;;341885;28;87298;-95
2021/10/26 00:48:51;;;;;;;;;;;14.10;99.90;14.30;100162.00;;;;344893;28;89068;-95
2021/10/26 00:49:04;;;;;;;;;;;14.10;99.90;14.40;100174.00;;;;343204;28;86943;-94
2021/10/26 00:49:16;;;;;;;;;;;14.10;99.90;14.30;100165.00;;;;344457;28;90839;-95
2021/10/26 00:49:28;;;;;;;;;;;14.10;99.90;14.30;100160.00;;;;344645;28;86953;-95
2021/10/26 00:49:39;;;;;;;;;;;14.10;99.90;14.30;100153.00;;;;342125;28;89137;-95
2021/10/26 00:49:51;;;;;;;;;;;14.10;99.90;14.30;100152.00;;;;340418;28;87037;-95
2021/10/26 00:50:04;;;;;;;;;;;14.10;99.90;14.30;100153.00;;;;341854;28;88759;-95
2021/10/26 00:50:16;;;;;;;;;;;14.10;99.90;14.30;100158.00;;;;341810;28;88012;-95
2021/10/26 00:50:28;;;;;;;;;;;14.10;99.90;14.30;100159.00;;;;343577;28;91062;-95
2021/10/26 00:50:40;;;;;;;;;;;14.10;99.90;14.30;100160.00;;;;341961;28;87666;-95
2021/10/26 00:50:53;;;;;;;;;;;14.10;99.90;14.30;100157.00;;;;343466;28;89388;-95
2021/10/26 00:51:05;;;;;;;;;;;14.10;99.90;14.30;100161.00;;;;341651;28;88371;-95
2021/10/26 00:51:17;;;;;;;;;;;14.10;99.90;14.30;100160.00;;;;342079;28;89940;-95
2021/10/26 00:51:29;;;;;;;;;;;14.10;99.90;14.30;100162.00;;;;344692;28;86245;-95
2021/10/26 00:51:41;;;;;;;;;;;14.00;99.90;14.30;100155.00;;;;342134;28;90165;-95
2021/10/26 00:51:55;;;;;;;;;;;14.10;99.90;14.30;100159.00;;;;341638;28;87076;-94
2021/10/26 00:52:07;;;;;;;;;;;14.10;99.90;14.30;100162.00;;;;342148;28;89628;-95
2021/10/26 00:52:19;;;;;;;;;;;14.10;99.90;14.30;100164.00;;;;340626;28;86563;-96
2021/10/26 00:52:30;;;;;;;;;;;14.10;99.90;14.30;100156.00;;;;342114;28;90051;-95
2021/10/26 00:52:43;;;;;;;;;;;14.10;99.90;14.30;100157.00;;;;340566;28;86889;-95
2021/10/26 00:52:55;;;;;;;;;;;14.10;99.90;14.30;100153.00;;;;343462;28;88947;-96
2021/10/26 00:53:07;;;;;;;;;;;14.10;99.90;14.30;100155.00;;;;340550;28;86946;-94
2021/10/26 00:53:19;;;;;;;;;;;14.10;99.90;14.20;100157.00;;;;342173;28;89855;-95
2021/10/26 00:53:31;;;;;;;;;;;14.00;99.90;14.20;100154.00;;;;343238;28;87239;-94
2021/10/26 00:53:42;;;;;;;;;;;14.00;99.90;14.20;100159.00;;;;344830;28;89854;-95
2021/10/26 00:53:55;;;;;;;;;;;14.00;99.90;14.30;100159.00;;;;341781;28;87780;-95
2021/10/26 00:54:06;;;;;;;;;;;14.00;99.90;14.30;100151.00;;;;343503;28;89732;-94
2021/10/26 00:54:18;;;;;;;;;;;14.00;99.90;14.30;100153.00;;;;340520;28;87017;-94
2021/10/26 00:54:30;;;;;;;;;;;14.00;99.90;14.30;100155.00;;;;340689;28;90854;-94
2021/10/26 00:54:42;;;;;;;;;;;14.00;99.90;14.30;100155.00;;;;340568;28;87317;-94
2021/10/26 00:54:54;;;;;;;;;;;14.00;99.90;14.30;100155.00;;;;343686;28;88707;-94
2021/10/26 00:55:06;;;;;;;;;;;14.00;99.90;14.30;100161.00;;;;343022;28;86847;-95
2021/10/26 00:55:18;;;;;;;;;;;14.00;99.90;14.40;100160.00;;;;340819;28;89819;-95
2021/10/26 00:55:30;;;;;;;;;;;14.00;99.90;14.40;100156.00;;;;343265;28;87410;-95
2021/10/26 00:55:43;;;;;;;;;;;14.00;99.90;14.40;100156.00;;;;342204;28;89974;-94
2021/10/26 00:55:55;;;;;;;;;;;14.00;99.90;14.40;100159.00;;;;341838;28;87405;-94
2021/10/26 00:56:06;;;;;;;;;;;14.10;99.90;14.30;100156.00;;;;340724;28;89607;-94
2021/10/26 00:56:19;;;;;;;;;;;14.00;99.90;14.20;100147.00;;;;341963;28;85968;-94
2021/10/26 00:56:31;;;;;;;;;;;14.10;99.90;14.20;100155.00;;;;343477;28;90117;-95
2021/10/26 00:56:44;;;;;;;;;;;14.10;99.90;14.20;100151.00;;;;341924;28;87091;-95
2021/10/26 00:56:56;;;;;;;;;;;14.00;99.90;14.30;100155.00;;;;342111;28;89391;-95
2021/10/26 00:57:08;;;;;;;;;;;14.00;99.90;14.20;100156.00;;;;341769;28;87190;-94
2021/10/26 00:57:25;;;;;;;;;;;14.00;99.90;14.20;100159.00;;;;340711;28;90262;-95
2021/10/26 00:57:37;;;;;;;;;;;14.00;99.90;14.30;100160.00;;;;343214;28;88194;-95
2021/10/26 00:57:49;;;;;;;;;;;14.00;99.90;14.50;100150.00;;;;340709;28;90187;-94
2021/10/26 00:58:01;;;;;;;;;;;14.00;99.90;14.60;100160.00;;;;341791;28;87090;-94
2021/10/26 00:58:13;;;;;;;;;;;14.10;99.90;14.60;100154.00;;;;342035;28;88663;-94
2021/10/26 00:58:25;;;;;;;;;;;14.10;99.90;14.40;100158.00;;;;341297;28;87309;-94
2021/10/26 00:58:37;;;;;;;;;;;14.10;99.90;14.30;100163.00;;;;342067;28;90589;-94
2021/10/26 00:58:49;;;;;;;;;;;14.00;99.90;14.30;100154.00;;;;341813;28;86712;-95